createdAt,value
2022-11-30T00:00:19.012Z,7.8
2022-11-30T00:01:22.231Z,7.8
2022-11-30T00:02:26.225Z,7.8
2022-11-30T00:03:29.954Z,7.8
2022-11-30T00:04:32.949Z,7.8
2022-11-30T00:05:35.375Z,7.7
2022-11-30T00:06:38.523Z,7.7
2022-11-30T00:07:42.377Z,7.8
2022-11-30T00:08:45.185Z,7.8
2022-11-30T00:09:47.888Z,7.8
2022-11-30T00:10:51.150Z,7.8
2022-11-30T00:11:55.094Z,7.8
2022-11-30T00:12:58.163Z,7.8
2022-11-30T00:14:01.084Z,7.7
2022-11-30T00:15:04.504Z,7.8
2022-11-30T00:16:07.078Z,7.7
2022-11-30T00:17:10.502Z,7.8
2022-11-30T00:18:13.034Z,7.7
2022-11-30T00:19:16.051Z,7.8
2022-11-30T00:20:19.074Z,7.8
2022-11-30T00:21:22.158Z,7.8
2022-11-30T00:22:24.844Z,7.7
2022-11-30T00:23:27.905Z,7.8
2022-11-30T00:24:30.980Z,7.7
2022-11-30T00:25:33.690Z,7.8
2022-11-30T00:26:37.075Z,7.8
2022-11-30T00:27:41.707Z,7.8
2022-11-30T00:28:44.245Z,7.7
2022-11-30T00:29:46.943Z,7.7
2022-11-30T00:30:49.880Z,7.8
2022-11-30T00:31:53.123Z,7.7
2022-11-30T00:33:11.342Z,7.7
2022-11-30T00:34:14.968Z,7.7
2022-11-30T00:35:17.478Z,7.7
2022-11-30T00:36:20.837Z,7.7
2022-11-30T00:37:23.968Z,7.7
2022-11-30T00:38:26.758Z,7.7
2022-11-30T00:39:36.432Z,7.7
2022-11-30T00:40:39.482Z,7.7
2022-11-30T00:41:42.105Z,7.7
2022-11-30T00:42:45.954Z,7.7
2022-11-30T00:43:49.665Z,7.7
2022-11-30T00:44:52.437Z,7.7
2022-11-30T00:45:55.800Z,7.7
2022-11-30T00:46:59.252Z,7.7
2022-11-30T00:48:02.137Z,7.7
2022-11-30T00:49:04.835Z,7.7
2022-11-30T00:50:07.999Z,7.7
2022-11-30T00:51:10.977Z,7.7
2022-11-30T00:52:13.590Z,7.7
2022-11-30T00:53:16.011Z,7.7
2022-11-30T00:54:18.432Z,7.7
2022-11-30T00:55:21.204Z,7.7
2022-11-30T00:56:25.939Z,7.7
2022-11-30T00:57:28.569Z,7.7
2022-11-30T00:58:33.049Z,7.7
2022-11-30T00:59:35.471Z,7.7
2022-11-30T01:00:38.171Z,7.7
2022-11-30T01:01:40.920Z,7.7
2022-11-30T01:02:43.424Z,7.7
2022-11-30T01:03:47.063Z,7.7
2022-11-30T01:04:49.992Z,7.7
2022-11-30T01:05:53.644Z,7.7
2022-11-30T01:06:56.713Z,7.7
2022-11-30T01:07:59.583Z,7.7
2022-11-30T01:09:02.856Z,7.7
2022-11-30T01:10:06.291Z,7.7
2022-11-30T01:11:09.336Z,7.7
2022-11-30T01:12:12.375Z,7.7
2022-11-30T01:13:15.007Z,7.7
2022-11-30T01:14:18.869Z,7.7
2022-11-30T01:15:21.447Z,7.7
2022-11-30T01:16:24.670Z,7.7
2022-11-30T01:17:27.847Z,7.7
2022-11-30T01:18:30.822Z,7.7
2022-11-30T01:19:33.889Z,7.7
2022-11-30T01:20:36.115Z,7.7
2022-11-30T01:21:38.832Z,7.7
2022-11-30T01:22:40.972Z,7.7
2022-11-30T01:23:43.986Z,7.7
2022-11-30T01:24:47.670Z,7.7
2022-11-30T01:25:51.520Z,7.7
2022-11-30T01:26:53.942Z,7.7
2022-11-30T01:27:56.648Z,7.7
2022-11-30T01:28:59.849Z,7.7
2022-11-30T01:30:04.077Z,7.7
2022-11-30T01:31:06.976Z,7.7
2022-11-30T01:32:10.786Z,7.7
2022-11-30T01:33:13.850Z,7.7
2022-11-30T01:34:16.824Z,7.7
2022-11-30T01:35:19.526Z,7.7
2022-11-30T01:36:22.020Z,7.7
2022-11-30T01:37:25.074Z,7.7
2022-11-30T01:38:27.564Z,7.7
2022-11-30T01:39:30.623Z,7.7
2022-11-30T01:40:33.784Z,7.7
2022-11-30T01:41:36.866Z,7.7
2022-11-30T01:42:39.644Z,7.7
2022-11-30T01:43:43.258Z,7.7
2022-11-30T01:44:47.338Z,7.7
2022-11-30T01:45:52.542Z,7.7
2022-11-30T01:46:55.305Z,7.7
2022-11-30T01:47:58.355Z,7.7
2022-11-30T01:49:01.686Z,7.7
2022-11-30T01:50:04.657Z,7.7
2022-11-30T01:51:07.153Z,7.7
2022-11-30T01:52:10.988Z,7.7
2022-11-30T01:53:13.411Z,7.7
2022-11-30T01:54:16.247Z,7.7
2022-11-30T01:55:19.621Z,7.7
2022-11-30T01:56:22.401Z,7.7
2022-11-30T01:57:25.094Z,7.7
2022-11-30T01:58:28.163Z,7.7
2022-11-30T01:59:30.384Z,7.7
2022-11-30T02:00:33.762Z,7.7
2022-11-30T02:01:37.772Z,7.7
2022-11-30T02:02:41.256Z,7.7
2022-11-30T02:03:44.334Z,7.7
2022-11-30T02:04:48.081Z,7.7
2022-11-30T02:05:51.388Z,7.7
2022-11-30T02:06:54.463Z,7.6
2022-11-30T02:07:57.638Z,7.7
2022-11-30T02:09:00.801Z,7.7
2022-11-30T02:10:03.286Z,7.7
2022-11-30T02:11:06.046Z,7.7
2022-11-30T02:12:08.994Z,7.7
2022-11-30T02:13:11.690Z,7.7
2022-11-30T02:14:14.108Z,7.7
2022-11-30T02:15:17.507Z,7.7
2022-11-30T02:16:20.831Z,7.7
2022-11-30T02:17:25.042Z,7.7
2022-11-30T02:18:27.739Z,7.7
2022-11-30T02:19:31.417Z,7.7
2022-11-30T02:20:33.565Z,7.7
2022-11-30T02:21:35.499Z,7.7
2022-11-30T02:22:38.648Z,7.7
2022-11-30T02:23:44.270Z,7.7
2022-11-30T02:24:50.183Z,7.7
2022-11-30T02:25:53.163Z,7.7
2022-11-30T02:26:55.847Z,7.7
2022-11-30T02:27:58.766Z,7.7
2022-11-30T02:29:02.565Z,7.7
2022-11-30T02:30:05.689Z,7.7
2022-11-30T02:31:09.341Z,7.7
2022-11-30T02:32:12.368Z,7.7
2022-11-30T02:33:16.429Z,7.7
2022-11-30T02:34:19.385Z,7.7
2022-11-30T02:35:22.715Z,7.7
2022-11-30T02:36:25.600Z,7.7
2022-11-30T02:37:28.367Z,7.7
2022-11-30T02:38:30.802Z,7.7
2022-11-30T02:39:33.581Z,7.7
2022-11-30T02:40:36.552Z,7.7
2022-11-30T02:41:39.337Z,7.7
2022-11-30T02:42:42.702Z,7.7
2022-11-30T02:43:45.138Z,7.7
2022-11-30T02:44:48.980Z,7.7
2022-11-30T02:45:52.100Z,7.7
2022-11-30T02:46:55.367Z,7.7
2022-11-30T02:47:58.779Z,7.7
2022-11-30T02:49:02.930Z,7.7
2022-11-30T02:50:06.643Z,7.7
2022-11-30T02:51:09.691Z,7.7
2022-11-30T02:52:12.250Z,7.7
2022-11-30T02:53:15.682Z,7.7
2022-11-30T02:54:18.378Z,7.7
2022-11-30T02:55:22.361Z,7.7
2022-11-30T02:56:24.861Z,7.7
2022-11-30T02:57:28.024Z,7.7
2022-11-30T02:58:30.904Z,7.7
2022-11-30T02:59:34.233Z,7.6
2022-11-30T03:00:37.278Z,7.6
2022-11-30T03:01:40.674Z,7.6
2022-11-30T03:02:44.141Z,7.6
2022-11-30T03:03:47.419Z,7.6
2022-11-30T03:04:51.509Z,7.6
2022-11-30T03:05:54.803Z,7.6
2022-11-30T03:06:57.691Z,7.6
2022-11-30T03:08:00.352Z,7.7
2022-11-30T03:09:03.134Z,7.7
2022-11-30T03:10:06.465Z,7.6
2022-11-30T03:11:09.227Z,7.6
2022-11-30T03:12:12.307Z,7.6
2022-11-30T03:13:15.097Z,7.6
2022-11-30T03:14:17.668Z,7.7
2022-11-30T03:15:20.361Z,7.6
2022-11-30T03:16:22.725Z,7.7
2022-11-30T03:17:25.019Z,7.6
2022-11-30T03:18:27.433Z,7.7
2022-11-30T03:19:31.099Z,7.6
2022-11-30T03:20:35.151Z,7.6
2022-11-30T03:21:37.853Z,7.7
2022-11-30T03:22:40.925Z,7.7
2022-11-30T03:23:43.997Z,7.7
2022-11-30T03:24:48.471Z,7.6
2022-11-30T03:25:52.584Z,7.6
2022-11-30T03:26:54.729Z,7.6
2022-11-30T03:27:58.049Z,7.7
2022-11-30T03:29:00.917Z,7.7
2022-11-30T03:30:03.985Z,7.6
2022-11-30T03:31:06.776Z,7.7
2022-11-30T03:32:10.393Z,7.6
2022-11-30T03:33:13.189Z,7.6
2022-11-30T03:34:15.973Z,7.7
2022-11-30T03:35:18.727Z,7.6
2022-11-30T03:36:22.863Z,7.6
2022-11-30T03:37:25.077Z,7.6
2022-11-30T03:38:27.927Z,7.6
2022-11-30T03:39:30.974Z,7.6
2022-11-30T03:40:34.026Z,7.6
2022-11-30T03:41:37.063Z,7.7
2022-11-30T03:42:39.557Z,7.6
2022-11-30T03:43:42.249Z,7.7
2022-11-30T03:44:46.122Z,7.7
2022-11-30T03:45:50.180Z,7.6
2022-11-30T03:46:53.646Z,7.7
2022-11-30T03:47:57.358Z,7.6
2022-11-30T03:49:00.146Z,7.6
2022-11-30T03:50:03.231Z,7.6
2022-11-30T03:51:05.467Z,7.6
2022-11-30T03:52:09.544Z,7.6
2022-11-30T03:53:11.957Z,7.6
2022-11-30T03:54:14.372Z,7.6
2022-11-30T03:55:18.083Z,7.6
2022-11-30T03:56:21.207Z,7.6
2022-11-30T03:57:23.991Z,7.6
2022-11-30T03:58:27.216Z,7.6
2022-11-30T03:59:29.719Z,7.6
2022-11-30T04:00:32.942Z,7.6
2022-11-30T04:01:35.617Z,7.6
2022-11-30T04:02:45.851Z,7.6
2022-11-30T04:03:48.896Z,7.6
2022-11-30T04:04:51.787Z,7.6
2022-11-30T04:05:54.206Z,7.6
2022-11-30T04:06:57.024Z,7.6
2022-11-30T04:08:01.355Z,7.7
2022-11-30T04:09:04.123Z,7.7
2022-11-30T04:10:09.510Z,7.7
2022-11-30T04:11:12.360Z,7.7
2022-11-30T04:12:15.520Z,7.7
2022-11-30T04:13:19.234Z,7.7
2022-11-30T04:14:21.660Z,7.7
2022-11-30T04:15:23.800Z,7.7
2022-11-30T04:16:27.099Z,7.7
2022-11-30T04:17:30.132Z,7.7
2022-11-30T04:18:33.184Z,7.7
2022-11-30T04:19:35.396Z,7.7
2022-11-30T04:20:41.435Z,7.7
2022-11-30T04:21:44.568Z,7.7
2022-11-30T04:22:47.451Z,7.7
2022-11-30T04:23:51.578Z,7.7
2022-11-30T04:24:53.807Z,7.7
2022-11-30T04:25:56.865Z,7.7
2022-11-30T04:26:59.710Z,7.7
2022-11-30T04:28:02.550Z,7.7
2022-11-30T04:29:05.991Z,7.7
2022-11-30T04:30:09.320Z,7.7
2022-11-30T04:31:12.097Z,7.7
2022-11-30T04:32:14.792Z,7.6
2022-11-30T04:33:17.281Z,7.6
2022-11-30T04:34:20.047Z,7.6
2022-11-30T04:35:22.673Z,7.7
2022-11-30T04:36:25.800Z,7.6
2022-11-30T04:37:28.854Z,7.6
2022-11-30T04:38:31.106Z,7.6
2022-11-30T04:39:35.148Z,7.6
2022-11-30T04:40:37.923Z,7.6
2022-11-30T04:41:40.351Z,7.6
2022-11-30T04:42:43.475Z,7.6
2022-11-30T04:43:46.278Z,7.6
2022-11-30T04:44:49.762Z,7.6
2022-11-30T04:45:52.456Z,7.6
2022-11-30T04:46:55.734Z,7.6
2022-11-30T04:47:58.785Z,7.6
2022-11-30T04:49:01.214Z,7.6
2022-11-30T04:50:04.320Z,7.6
2022-11-30T04:51:06.902Z,7.6
2022-11-30T04:52:10.332Z,7.6
2022-11-30T04:53:13.179Z,7.6
2022-11-30T04:54:16.479Z,7.6
2022-11-30T04:55:20.349Z,7.6
2022-11-30T04:56:23.398Z,7.5
2022-11-30T04:57:26.449Z,7.5
2022-11-30T04:58:29.780Z,7.5
2022-11-30T04:59:32.309Z,7.5
2022-11-30T05:00:34.736Z,7.5
2022-11-30T05:01:38.281Z,7.5
2022-11-30T05:02:41.193Z,7.5
2022-11-30T05:03:49.584Z,7.5
2022-11-30T05:04:52.714Z,7.5
2022-11-30T05:05:55.930Z,7.5
2022-11-30T05:06:58.141Z,7.5
2022-11-30T05:08:01.043Z,7.5
2022-11-30T05:09:04.236Z,7.5
2022-11-30T05:10:06.993Z,7.5
2022-11-30T05:11:10.819Z,7.5
2022-11-30T05:12:13.880Z,7.5
2022-11-30T05:13:16.021Z,7.5
2022-11-30T05:14:19.393Z,7.5
2022-11-30T05:15:22.465Z,7.5
2022-11-30T05:16:26.359Z,7.5
2022-11-30T05:17:29.983Z,7.5
2022-11-30T05:18:33.618Z,7.5
2022-11-30T05:19:36.322Z,7.5
2022-11-30T05:20:38.904Z,7.5
2022-11-30T05:21:46.310Z,7.5
2022-11-30T05:22:49.188Z,7.5
2022-11-30T05:23:52.149Z,7.5
2022-11-30T05:24:55.475Z,7.5
2022-11-30T05:25:59.245Z,7.5
2022-11-30T05:27:15.416Z,7.5
2022-11-30T05:28:24.797Z,7.5
2022-11-30T05:29:27.571Z,7.5
2022-11-30T05:30:30.391Z,7.5
2022-11-30T05:31:32.820Z,7.6
2022-11-30T05:32:35.664Z,7.5
2022-11-30T05:33:38.727Z,7.5
2022-11-30T05:34:52.663Z,7.6
2022-11-30T05:35:56.709Z,7.6
2022-11-30T05:36:59.759Z,7.5
2022-11-30T05:38:02.271Z,7.5
2022-11-30T05:39:04.777Z,7.5
2022-11-30T05:40:07.925Z,7.5
2022-11-30T05:41:11.593Z,7.5
2022-11-30T05:42:15.679Z,7.5
2022-11-30T05:43:18.101Z,7.5
2022-11-30T05:44:20.876Z,7.5
2022-11-30T05:45:23.931Z,7.5
2022-11-30T05:46:27.136Z,7.6
2022-11-30T05:47:29.821Z,7.5
2022-11-30T05:48:33.144Z,7.5
2022-11-30T05:49:35.564Z,7.5
2022-11-30T05:50:38.077Z,7.5
2022-11-30T05:51:40.841Z,7.5
2022-11-30T05:52:44.260Z,7.5
2022-11-30T05:53:48.273Z,7.5
2022-11-30T05:54:51.607Z,7.5
2022-11-30T05:55:54.302Z,7.5
2022-11-30T05:56:57.043Z,7.5
2022-11-30T05:58:01.183Z,7.5
2022-11-30T05:59:03.879Z,7.5
2022-11-30T06:00:07.214Z,7.5
2022-11-30T06:01:10.265Z,7.5
2022-11-30T06:02:13.547Z,7.5
2022-11-30T06:03:16.817Z,7.5
2022-11-30T06:04:20.466Z,7.5
2022-11-30T06:05:23.894Z,7.5
2022-11-30T06:06:26.745Z,7.5
2022-11-30T06:07:29.954Z,7.5
2022-11-30T06:08:33.138Z,7.5
2022-11-30T06:09:35.635Z,7.5
2022-11-30T06:10:39.070Z,7.5
2022-11-30T06:11:41.773Z,7.5
2022-11-30T06:12:44.499Z,7.5
2022-11-30T06:13:48.642Z,7.5
2022-11-30T06:14:52.347Z,7.5
2022-11-30T06:15:55.325Z,7.5
2022-11-30T06:16:57.747Z,7.5
2022-11-30T06:18:00.254Z,7.5
2022-11-30T06:19:03.304Z,7.5
2022-11-30T06:20:06.356Z,7.5
2022-11-30T06:21:09.851Z,7.5
2022-11-30T06:22:12.833Z,7.5
2022-11-30T06:23:15.896Z,7.5
2022-11-30T06:24:18.409Z,7.5
2022-11-30T06:25:21.539Z,7.5
2022-11-30T06:26:24.478Z,7.5
2022-11-30T06:27:27.805Z,7.5
2022-11-30T06:28:31.018Z,7.5
2022-11-30T06:29:35.122Z,7.5
2022-11-30T06:30:37.696Z,7.5
2022-11-30T06:31:41.326Z,7.5
2022-11-30T06:32:45.486Z,7.5
2022-11-30T06:33:48.922Z,7.5
2022-11-30T06:34:52.089Z,7.5
2022-11-30T06:35:54.854Z,7.5
2022-11-30T06:36:57.081Z,7.6
2022-11-30T06:37:59.446Z,7.5
2022-11-30T06:39:02.881Z,7.5
2022-11-30T06:40:08.868Z,7.6
2022-11-30T06:41:11.095Z,7.6
2022-11-30T06:42:13.935Z,7.5
2022-11-30T06:43:16.783Z,7.5
2022-11-30T06:44:19.791Z,7.6
2022-11-30T06:45:23.845Z,7.6
2022-11-30T06:46:27.367Z,7.6
2022-11-30T06:47:30.337Z,7.6
2022-11-30T06:48:33.033Z,7.6
2022-11-30T06:49:36.120Z,7.6
2022-11-30T06:50:39.550Z,7.5
2022-11-30T06:51:52.078Z,7.6
2022-11-30T06:52:54.646Z,7.5
2022-11-30T06:53:57.973Z,7.5
2022-11-30T06:55:01.021Z,7.5
2022-11-30T06:56:11.549Z,7.5
2022-11-30T06:57:14.313Z,7.5
2022-11-30T06:58:18.019Z,7.5
2022-11-30T06:59:20.247Z,7.5
2022-11-30T07:00:23.050Z,7.6
2022-11-30T07:01:27.323Z,7.5
2022-11-30T07:02:30.821Z,7.5
2022-11-30T07:03:33.945Z,7.5
2022-11-30T07:04:36.914Z,7.5
2022-11-30T07:05:39.853Z,7.5
2022-11-30T07:06:43.170Z,7.5
2022-11-30T07:07:46.207Z,7.5
2022-11-30T07:08:48.924Z,7.5
2022-11-30T07:09:51.698Z,7.5
2022-11-30T07:10:54.898Z,7.5
2022-11-30T07:11:57.394Z,7.5
2022-11-30T07:13:00.449Z,7.4
2022-11-30T07:14:03.227Z,7.4
2022-11-30T07:15:05.994Z,7.4
2022-11-30T07:16:09.182Z,7.5
2022-11-30T07:17:13.541Z,7.5
2022-11-30T07:18:16.748Z,7.5
2022-11-30T07:19:19.829Z,7.5
2022-11-30T07:20:22.118Z,7.5
2022-11-30T07:21:24.818Z,7.4
2022-11-30T07:22:27.522Z,7.4
2022-11-30T07:23:30.681Z,7.4
2022-11-30T07:24:33.936Z,7.4
2022-11-30T07:25:36.453Z,7.4
2022-11-30T07:26:38.874Z,7.4
2022-11-30T07:27:41.293Z,7.4
2022-11-30T07:28:45.148Z,7.4
2022-11-30T07:29:47.656Z,7.4
2022-11-30T07:30:50.704Z,7.4
2022-11-30T07:31:54.064Z,7.5
2022-11-30T07:32:58.097Z,7.5
2022-11-30T07:34:00.582Z,7.4
2022-11-30T07:35:03.082Z,7.5
2022-11-30T07:36:06.713Z,7.5
2022-11-30T07:37:10.419Z,7.5
2022-11-30T07:38:13.344Z,7.5
2022-11-30T07:39:16.388Z,7.5
2022-11-30T07:40:18.877Z,7.5
2022-11-30T07:41:21.945Z,7.4
2022-11-30T07:42:24.784Z,7.4
2022-11-30T07:43:28.038Z,7.4
2022-11-30T07:44:31.195Z,7.4
2022-11-30T07:45:34.209Z,7.4
2022-11-30T07:46:37.828Z,7.4
2022-11-30T07:47:40.718Z,7.4
2022-11-30T07:48:44.657Z,7.4
2022-11-30T07:49:47.634Z,7.4
2022-11-30T07:50:50.615Z,7.4
2022-11-30T07:51:54.246Z,7.4
2022-11-30T07:52:57.480Z,7.4
2022-11-30T07:54:00.722Z,7.4
2022-11-30T07:55:03.907Z,7.4
2022-11-30T07:56:06.965Z,7.4
2022-11-30T07:57:10.197Z,7.4
2022-11-30T07:58:18.247Z,7.4
2022-11-30T07:59:21.674Z,7.4
2022-11-30T08:00:25.218Z,7.4
2022-11-30T08:01:28.926Z,7.4
2022-11-30T08:02:31.992Z,7.4
2022-11-30T08:03:38.103Z,7.4
2022-11-30T08:04:42.537Z,7.4
2022-11-30T08:05:46.025Z,7.4
2022-11-30T08:06:48.827Z,7.4
2022-11-30T08:07:51.516Z,7.4
2022-11-30T08:08:54.609Z,7.4
2022-11-30T08:09:57.171Z,7.4
2022-11-30T08:11:00.229Z,7.4
2022-11-30T08:12:03.665Z,7.4
2022-11-30T08:13:06.163Z,7.4
2022-11-30T08:14:08.447Z,7.4
2022-11-30T08:15:25.207Z,7.4
2022-11-30T08:16:38.298Z,7.4
2022-11-30T08:17:41.737Z,7.4
2022-11-30T08:18:45.110Z,7.4
2022-11-30T08:19:49.208Z,7.4
2022-11-30T08:20:52.343Z,7.4
2022-11-30T08:21:54.829Z,7.4
2022-11-30T08:22:57.965Z,7.4
2022-11-30T08:24:01.185Z,7.4
2022-11-30T08:25:04.513Z,7.4
2022-11-30T08:26:07.944Z,7.4
2022-11-30T08:27:11.347Z,7.4
2022-11-30T08:28:14.125Z,7.4
2022-11-30T08:29:17.492Z,7.4
2022-11-30T08:30:20.289Z,7.4
2022-11-30T08:31:27.661Z,7.4
2022-11-30T08:32:30.726Z,7.4
2022-11-30T08:33:33.503Z,7.4
2022-11-30T08:34:36.658Z,7.4
2022-11-30T08:35:40.806Z,7.4
2022-11-30T08:36:52.260Z,7.4
2022-11-30T08:37:55.692Z,7.5
2022-11-30T08:38:58.952Z,7.4
2022-11-30T08:40:02.085Z,7.5
2022-11-30T08:41:05.501Z,7.5
2022-11-30T08:42:08.480Z,7.5
2022-11-30T08:43:11.608Z,7.5
2022-11-30T08:44:14.380Z,7.5
2022-11-30T08:45:17.475Z,7.5
2022-11-30T08:46:53.187Z,7.5
2022-11-30T08:47:57.434Z,7.5
2022-11-30T09:01:56.049Z,7.5
2022-11-30T09:02:59.945Z,7.5
2022-11-30T09:04:03.650Z,7.5
2022-11-30T09:05:07.364Z,7.5
2022-11-30T09:06:10.673Z,7.5
2022-11-30T09:07:13.740Z,7.5
2022-11-30T09:08:16.433Z,7.5
2022-11-30T09:09:18.936Z,7.5
2022-11-30T09:10:21.839Z,7.5
2022-11-30T09:11:25.374Z,7.5
2022-11-30T09:12:28.258Z,7.5
2022-11-30T09:13:31.038Z,7.5
2022-11-30T09:14:34.215Z,7.5
2022-11-30T09:15:37.415Z,7.5
2022-11-30T09:16:41.168Z,7.5
2022-11-30T09:17:45.353Z,7.5
2022-11-30T09:18:48.320Z,7.5
2022-11-30T09:19:52.640Z,7.4
2022-11-30T09:20:55.416Z,7.5
2022-11-30T09:21:58.191Z,7.5
2022-11-30T09:23:01.314Z,7.5
2022-11-30T09:24:04.240Z,7.4
2022-11-30T09:25:07.666Z,7.4
2022-11-30T09:26:11.090Z,7.4
2022-11-30T09:27:13.814Z,7.5
2022-11-30T09:28:16.760Z,7.5
2022-11-30T09:29:19.877Z,7.5
2022-11-30T09:30:22.930Z,7.5
2022-11-30T09:31:25.767Z,7.5
2022-11-30T09:32:29.515Z,7.5
2022-11-30T09:33:33.659Z,7.5
2022-11-30T09:34:36.902Z,7.5
2022-11-30T09:35:39.680Z,7.5
2022-11-30T09:36:42.787Z,7.4
2022-11-30T09:37:45.478Z,7.4
2022-11-30T09:38:48.182Z,7.4
2022-11-30T09:39:51.807Z,7.4
2022-11-30T09:40:54.574Z,7.4
2022-11-30T09:41:57.146Z,7.5
2022-11-30T09:43:00.322Z,7.5
2022-11-30T09:44:03.825Z,7.5
2022-11-30T09:45:06.117Z,7.4
2022-11-30T09:46:08.790Z,7.4
2022-11-30T09:47:12.453Z,7.4
2022-11-30T09:48:15.287Z,7.4
2022-11-30T09:49:19.499Z,7.5
2022-11-30T09:50:22.208Z,7.5
2022-11-30T09:51:24.742Z,7.5
2022-11-30T09:52:27.805Z,7.5
2022-11-30T09:53:31.130Z,7.5
2022-11-30T09:54:34.264Z,7.5
2022-11-30T09:55:37.318Z,7.5
2022-11-30T09:56:40.093Z,7.5
2022-11-30T09:57:43.527Z,7.5
2022-11-30T09:58:47.112Z,7.5
2022-11-30T09:59:49.053Z,7.5
2022-11-30T10:00:52.138Z,7.6
2022-11-30T10:01:58.424Z,7.6
2022-11-30T10:03:01.742Z,7.6
2022-11-30T10:04:04.730Z,7.6
2022-11-30T10:05:08.802Z,7.6
2022-11-30T10:06:11.785Z,7.6
2022-11-30T10:07:15.199Z,7.6
2022-11-30T10:08:19.271Z,7.6
2022-11-30T10:09:22.203Z,7.6
2022-11-30T10:10:34.388Z,7.6
2022-11-30T10:11:37.978Z,7.6
2022-11-30T10:12:40.492Z,7.6
2022-11-30T10:13:43.817Z,7.6
2022-11-30T10:14:48.626Z,7.7
2022-11-30T10:15:53.307Z,7.6
2022-11-30T10:16:57.087Z,7.7
2022-11-30T10:17:59.677Z,7.7
2022-11-30T10:19:02.374Z,7.7
2022-11-30T10:20:06.225Z,7.7
2022-11-30T10:21:10.411Z,7.7
2022-11-30T10:22:13.592Z,7.7
2022-11-30T10:23:16.302Z,7.7
2022-11-30T10:24:19.670Z,7.7
2022-11-30T10:25:22.825Z,7.7
2022-11-30T10:26:25.903Z,7.7
2022-11-30T10:27:28.978Z,7.7
2022-11-30T10:28:49.266Z,7.7
2022-11-30T10:29:52.614Z,7.7
2022-11-30T10:30:55.615Z,7.7
2022-11-30T10:31:58.573Z,7.7
2022-11-30T10:33:02.642Z,7.7
2022-11-30T10:34:05.327Z,7.7
2022-11-30T10:35:08.436Z,7.7
2022-11-30T10:36:11.842Z,7.7
2022-11-30T10:37:16.039Z,7.7
2022-11-30T10:38:18.639Z,7.7
2022-11-30T10:39:21.994Z,7.7
2022-11-30T10:40:25.157Z,7.7
2022-11-30T10:41:28.587Z,7.7
2022-11-30T10:42:31.081Z,7.7
2022-11-30T10:43:34.121Z,7.7
2022-11-30T10:44:37.185Z,7.7
2022-11-30T10:45:39.880Z,7.7
2022-11-30T10:46:42.959Z,7.7
2022-11-30T10:47:46.415Z,7.7
2022-11-30T10:48:50.027Z,7.7
2022-11-30T10:49:53.439Z,7.7
2022-11-30T10:50:57.092Z,7.7
2022-11-30T10:52:00.900Z,7.7
2022-11-30T10:53:04.956Z,7.7
2022-11-30T10:54:08.096Z,7.7
2022-11-30T10:55:11.169Z,7.7
2022-11-30T10:56:14.232Z,7.7
2022-11-30T10:57:17.213Z,7.7
2022-11-30T10:58:20.537Z,7.7
2022-11-30T10:59:24.331Z,7.7
2022-11-30T11:00:27.941Z,7.7
2022-11-30T11:01:30.834Z,7.7
2022-11-30T11:02:33.775Z,7.7
2022-11-30T11:03:37.836Z,7.7
2022-11-30T11:04:41.052Z,7.7
2022-11-30T11:05:43.503Z,7.7
2022-11-30T11:06:47.455Z,7.7
2022-11-30T11:07:51.452Z,7.7
2022-11-30T11:08:55.924Z,7.7
2022-11-30T11:09:58.072Z,7.7
2022-11-30T11:11:02.070Z,7.7
2022-11-30T11:12:05.050Z,7.7
2022-11-30T11:13:08.179Z,7.7
2022-11-30T11:14:10.884Z,7.7
2022-11-30T11:15:13.673Z,7.8
2022-11-30T11:16:17.361Z,7.8
2022-11-30T11:17:20.530Z,7.8
2022-11-30T11:18:23.283Z,7.8
2022-11-30T11:19:26.755Z,7.8
2022-11-30T11:20:29.967Z,7.8
2022-11-30T11:21:33.676Z,7.8
2022-11-30T11:22:37.009Z,7.8
2022-11-30T11:23:41.017Z,7.8
2022-11-30T11:24:44.739Z,7.8
2022-11-30T11:25:47.879Z,7.8
2022-11-30T11:26:51.220Z,7.8
2022-11-30T11:27:54.630Z,7.8
2022-11-30T11:28:57.355Z,7.8
2022-11-30T11:30:01.054Z,7.8
2022-11-30T11:31:04.854Z,7.8
2022-11-30T11:32:08.515Z,7.8
2022-11-30T11:33:11.958Z,7.8
2022-11-30T11:34:14.931Z,7.8
2022-11-30T11:35:17.821Z,7.8
2022-11-30T11:36:20.037Z,7.8
2022-11-30T11:37:22.830Z,7.8
2022-11-30T11:38:26.369Z,7.8
2022-11-30T11:39:29.822Z,7.8
2022-11-30T11:40:33.625Z,7.8
2022-11-30T11:41:36.950Z,7.8
2022-11-30T11:42:40.026Z,7.8
2022-11-30T11:43:43.177Z,7.8
2022-11-30T11:44:46.006Z,7.8
2022-11-30T11:45:49.160Z,7.9
2022-11-30T11:46:52.232Z,7.9
2022-11-30T11:47:55.490Z,7.9
2022-11-30T11:48:58.466Z,7.9
2022-11-30T11:50:01.888Z,7.9
2022-11-30T11:51:09.044Z,7.9
2022-11-30T11:52:12.220Z,7.9
2022-11-30T11:53:15.256Z,7.9
2022-11-30T11:54:19.042Z,7.9
2022-11-30T11:55:22.831Z,7.9
2022-11-30T11:56:26.362Z,7.9
2022-11-30T11:57:29.265Z,7.9
2022-11-30T11:58:31.783Z,7.9
2022-11-30T11:59:35.400Z,7.9
2022-11-30T12:00:38.174Z,7.9
2022-11-30T12:01:42.314Z,7.9
2022-11-30T12:02:46.174Z,7.9
2022-11-30T12:03:49.159Z,7.9
2022-11-30T12:04:52.214Z,7.9
2022-11-30T12:05:55.974Z,7.9
2022-11-30T12:06:59.406Z,7.9
2022-11-30T12:08:02.334Z,7.9
2022-11-30T12:09:04.823Z,7.9
2022-11-30T12:10:53.257Z,7.9
2022-11-30T12:11:58.280Z,7.9
2022-11-30T12:13:00.977Z,7.9
2022-11-30T12:14:04.315Z,7.9
2022-11-30T12:15:07.603Z,7.9
2022-11-30T12:16:10.626Z,7.9
2022-11-30T12:17:14.252Z,7.9
2022-11-30T12:18:25.058Z,7.9
2022-11-30T12:19:28.312Z,7.9
2022-11-30T12:20:31.842Z,7.9
2022-11-30T12:21:34.542Z,7.9
2022-11-30T12:22:37.325Z,7.9
2022-11-30T12:23:40.426Z,7.9
2022-11-30T12:24:43.486Z,7.9
2022-11-30T12:25:46.923Z,7.9
2022-11-30T12:26:51.010Z,7.9
2022-11-30T12:27:55.472Z,8
2022-11-30T12:28:58.800Z,7.9
2022-11-30T12:30:01.375Z,8
2022-11-30T12:31:04.274Z,8
2022-11-30T12:32:07.376Z,8
2022-11-30T12:33:10.974Z,8
2022-11-30T12:34:13.835Z,8
2022-11-30T12:35:17.892Z,8
2022-11-30T12:36:20.910Z,8
2022-11-30T12:37:23.754Z,8
2022-11-30T12:38:26.279Z,8
2022-11-30T12:39:29.139Z,8
2022-11-30T12:40:32.190Z,8
2022-11-30T12:41:35.011Z,8
2022-11-30T12:42:37.732Z,8
2022-11-30T12:43:41.628Z,8
2022-11-30T12:44:45.261Z,8
2022-11-30T12:45:48.633Z,8
2022-11-30T12:46:51.956Z,8
2022-11-30T12:47:55.542Z,8
2022-11-30T12:48:59.058Z,8
2022-11-30T12:50:02.093Z,8
2022-11-30T12:51:05.235Z,8
2022-11-30T12:52:08.727Z,7.9
2022-11-30T12:53:11.788Z,7.9
2022-11-30T12:54:15.574Z,8
2022-11-30T12:55:18.931Z,8
2022-11-30T12:56:21.685Z,8
2022-11-30T12:57:24.470Z,8
2022-11-30T12:58:27.297Z,8
2022-11-30T12:59:31.139Z,8
2022-11-30T13:00:33.903Z,8
2022-11-30T13:01:37.382Z,8
2022-11-30T13:02:40.131Z,8
2022-11-30T13:03:43.188Z,8
2022-11-30T13:04:50.832Z,8
2022-11-30T13:06:02.556Z,8
2022-11-30T13:07:05.807Z,8
2022-11-30T13:08:09.064Z,8
2022-11-30T13:09:12.631Z,8
2022-11-30T13:10:15.989Z,8
2022-11-30T13:11:18.762Z,8
2022-11-30T13:12:21.642Z,8
2022-11-30T13:13:25.081Z,8
2022-11-30T13:14:28.537Z,8
2022-11-30T13:15:32.338Z,8
2022-11-30T13:16:35.751Z,8
2022-11-30T13:17:38.546Z,8
2022-11-30T13:18:41.964Z,8
2022-11-30T13:19:45.378Z,8
2022-11-30T13:20:48.468Z,8.1
2022-11-30T13:21:51.542Z,8.1
2022-11-30T13:22:54.329Z,8.1
2022-11-30T13:23:57.095Z,8.1
2022-11-30T13:24:59.864Z,8.1
2022-11-30T13:26:11.067Z,8.1
2022-11-30T13:27:13.340Z,8.1
2022-11-30T13:28:16.116Z,8.1
2022-11-30T13:29:19.538Z,8.1
2022-11-30T13:30:22.640Z,8.1
2022-11-30T13:31:26.963Z,8.1
2022-11-30T13:33:00.622Z,8.2
2022-11-30T13:34:03.599Z,8.2
2022-11-30T13:35:06.651Z,8.2
2022-11-30T13:36:09.451Z,8.1
2022-11-30T13:37:11.916Z,8.2
2022-11-30T13:38:38.793Z,8.2
2022-11-30T13:39:41.883Z,8.1
2022-11-30T13:40:45.600Z,8.2
2022-11-30T13:41:48.864Z,8.1
2022-11-30T13:42:53.014Z,8.2
2022-11-30T13:43:56.441Z,8.2
2022-11-30T13:45:00.149Z,8.1
2022-11-30T13:46:03.222Z,8.2
2022-11-30T13:47:07.367Z,8.1
2022-11-30T13:48:09.792Z,8.1
2022-11-30T13:49:13.115Z,8.2
2022-11-30T13:50:16.243Z,8.1
2022-11-30T13:51:19.537Z,8.1
2022-11-30T13:52:25.027Z,8.1
2022-11-30T13:53:28.063Z,8.1
2022-11-30T13:54:31.045Z,8.1
2022-11-30T13:55:34.162Z,8.1
2022-11-30T13:56:37.057Z,8.1
2022-11-30T13:57:39.553Z,8.1
2022-11-30T13:58:42.698Z,8.1
2022-11-30T13:59:46.136Z,8.1
2022-11-30T14:00:49.564Z,8.1
2022-11-30T14:01:53.398Z,8.1
2022-11-30T14:02:57.814Z,8.1
2022-11-30T14:04:01.269Z,8.1
2022-11-30T14:05:04.215Z,8.1
2022-11-30T14:06:07.272Z,8.1
2022-11-30T14:07:10.121Z,8.1
2022-11-30T14:08:13.783Z,8.1
2022-11-30T14:09:16.862Z,8.1
2022-11-30T14:10:19.471Z,8.1
2022-11-30T14:11:23.459Z,8.1
2022-11-30T14:12:25.949Z,8.1
2022-11-30T14:13:29.282Z,8.1
2022-11-30T14:14:32.675Z,8.1
2022-11-30T14:15:35.450Z,8.1
2022-11-30T14:16:38.119Z,8.1
2022-11-30T14:17:41.633Z,8.1
2022-11-30T14:18:45.697Z,8.1
2022-11-30T14:19:49.081Z,8.1
2022-11-30T14:20:52.304Z,8.1
2022-11-30T14:21:55.835Z,8.1
2022-11-30T14:22:58.604Z,8.1
2022-11-30T14:24:02.032Z,8.1
2022-11-30T14:25:04.743Z,8.1
2022-11-30T14:26:12.082Z,8.1
2022-11-30T14:27:15.417Z,8.1
2022-11-30T14:28:19.038Z,8.1
2022-11-30T14:29:22.748Z,8.1
2022-11-30T14:30:25.170Z,8.1
2022-11-30T14:31:28.128Z,8.1
2022-11-30T14:32:31.628Z,8.1
2022-11-30T14:33:34.815Z,8.1
2022-11-30T14:34:38.964Z,8.1
2022-11-30T14:35:42.018Z,8.1
2022-11-30T14:36:44.513Z,8.1
2022-11-30T14:37:47.046Z,8.1
2022-11-30T14:38:50.163Z,8
2022-11-30T14:39:52.865Z,8
2022-11-30T14:40:56.568Z,8
2022-11-30T14:42:00.058Z,8
2022-11-30T14:43:03.474Z,8
2022-11-30T14:44:07.276Z,8
2022-11-30T14:45:10.435Z,8
2022-11-30T14:46:16.684Z,8
2022-11-30T14:47:19.208Z,8
2022-11-30T14:48:22.279Z,8
2022-11-30T14:49:25.981Z,8
2022-11-30T14:50:29.874Z,8
2022-11-30T14:51:32.301Z,8
2022-11-30T14:52:38.572Z,8